sensor_id;sensor_type;location;lat;lon;timestamp;temperature;humidity
24800;DHT22;12897;50.812;4.430;2023-10-13T00:00:37;19.20;99.90
24800;DHT22;12897;50.812;4.430;2023-10-13T00:03:07;19.30;99.90
24800;DHT22;12897;50.812;4.430;2023-10-13T00:05:36;19.40;99.90
24800;DHT22;12897;50.812;4.430;2023-10-13T00:08:05;19.30;99.90
24800;DHT22;12897;50.812;4.430;2023-10-13T00:10:37;19.20;99.90
24800;DHT22;12897;50.812;4.430;2023-10-13T00:13:03;19.10;99.90
24800;DHT22;12897;50.812;4.430;2023-10-13T00:15:43;19.20;99.90
24800;DHT22;12897;50.812;4.430;2023-10-13T00:18:30;19.30;99.90
24800;DHT22;12897;50.812;4.430;2023-10-13T00:21:01;19.30;99.90
24800;DHT22;12897;50.812;4.430;2023-10-13T00:23:39;19.40;99.90
24800;DHT22;12897;50.812;4.430;2023-10-13T00:26:06;19.50;99.90
24800;DHT22;12897;50.812;4.430;2023-10-13T00:28:37;19.40;99.90
24800;DHT22;12897;50.812;4.430;2023-10-13T00:31:13;19.60;99.90
24800;DHT22;12897;50.812;4.430;2023-10-13T00:33:41;19.50;99.90
24800;DHT22;12897;50.812;4.430;2023-10-13T00:36:10;19.40;99.90
24800;DHT22;12897;50.812;4.430;2023-10-13T00:38:39;19.40;99.90
24800;DHT22;12897;50.812;4.430;2023-10-13T00:41:08;19.50;99.90
24800;DHT22;12897;50.812;4.430;2023-10-13T00:43:52;19.60;99.90
24800;DHT22;12897;50.812;4.430;2023-10-13T00:46:35;19.70;99.90
24800;DHT22;12897;50.812;4.430;2023-10-13T00:49:04;19.80;99.90
24800;DHT22;12897;50.812;4.430;2023-10-13T00:51:34;19.80;99.90
24800;DHT22;12897;50.812;4.430;2023-10-13T00:54:06;19.80;99.90
24800;DHT22;12897;50.812;4.430;2023-10-13T00:56:41;19.70;99.90
24800;DHT22;12897;50.812;4.430;2023-10-13T00:59:17;19.70;99.90
24800;DHT22;12897;50.812;4.430;2023-10-13T01:01:46;19.70;99.90
24800;DHT22;12897;50.812;4.430;2023-10-13T01:04:21;19.70;99.90
24800;DHT22;12897;50.812;4.430;2023-10-13T01:06:55;19.60;99.90
24800;DHT22;12897;50.812;4.430;2023-10-13T01:09:28;19.60;99.90
24800;DHT22;12897;50.812;4.430;2023-10-13T01:12:04;19.60;99.90
24800;DHT22;12897;50.812;4.430;2023-10-13T01:14:42;19.60;99.90
24800;DHT22;12897;50.812;4.430;2023-10-13T01:17:17;19.70;99.90
24800;DHT22;12897;50.812;4.430;2023-10-13T01:19:51;19.70;99.90
24800;DHT22;12897;50.812;4.430;2023-10-13T01:22:16;19.60;99.90
24800;DHT22;12897;50.812;4.430;2023-10-13T01:24:45;19.90;99.90
24800;DHT22;12897;50.812;4.430;2023-10-13T01:27:12;19.90;99.90
24800;DHT22;12897;50.812;4.430;2023-10-13T01:29:48;20.00;99.90
24800;DHT22;12897;50.812;4.430;2023-10-13T01:32:21;19.90;99.90
24800;DHT22;12897;50.812;4.430;2023-10-13T01:34:47;19.80;99.90
24800;DHT22;12897;50.812;4.430;2023-10-13T01:37:16;19.70;99.90
24800;DHT22;12897;50.812;4.430;2023-10-13T01:39:45;19.60;99.90
24800;DHT22;12897;50.812;4.430;2023-10-13T01:42:16;19.70;99.90
24800;DHT22;12897;50.812;4.430;2023-10-13T01:44:48;19.60;99.90
24800;DHT22;12897;50.812;4.430;2023-10-13T01:47:16;19.50;99.90
24800;DHT22;12897;50.812;4.430;2023-10-13T01:49:47;19.40;99.90
24800;DHT22;12897;50.812;4.430;2023-10-13T01:52:17;19.40;99.90
24800;DHT22;12897;50.812;4.430;2023-10-13T01:54:48;19.50;99.90
24800;DHT22;12897;50.812;4.430;2023-10-13T01:57:18;19.60;99.90
24800;DHT22;12897;50.812;4.430;2023-10-13T01:59:48;19.60;99.90
24800;DHT22;12897;50.812;4.430;2023-10-13T02:02:16;19.70;99.90
24800;DHT22;12897;50.812;4.430;2023-10-13T02:04:49;19.70;99.90
24800;DHT22;12897;50.812;4.430;2023-10-13T02:07:21;19.40;99.90
24800;DHT22;12897;50.812;4.430;2023-10-13T02:09:53;19.40;99.90
24800;DHT22;12897;50.812;4.430;2023-10-13T02:12:21;19.50;99.90
24800;DHT22;12897;50.812;4.430;2023-10-13T02:15:07;19.50;99.90
24800;DHT22;12897;50.812;4.430;2023-10-13T02:17:44;19.60;99.90
24800;DHT22;12897;50.812;4.430;2023-10-13T02:20:09;19.70;99.90
24800;DHT22;12897;50.812;4.430;2023-10-13T02:22:41;19.60;99.90
24800;DHT22;12897;50.812;4.430;2023-10-13T02:25:10;19.50;99.90
24800;DHT22;12897;50.812;4.430;2023-10-13T02:27:39;19.50;99.90
24800;DHT22;12897;50.812;4.430;2023-10-13T02:30:15;19.40;99.90
24800;DHT22;12897;50.812;4.430;2023-10-13T02:32:48;19.40;99.90
24800;DHT22;12897;50.812;4.430;2023-10-13T02:35:29;19.20;99.90
24800;DHT22;12897;50.812;4.430;2023-10-13T02:38:05;19.20;99.90
24800;DHT22;12897;50.812;4.430;2023-10-13T02:40:39;19.10;99.90
24800;DHT22;12897;50.812;4.430;2023-10-13T02:43:13;19.20;99.90
24800;DHT22;12897;50.812;4.430;2023-10-13T02:45:41;19.10;99.90
24800;DHT22;12897;50.812;4.430;2023-10-13T02:48:28;19.20;99.90
24800;DHT22;12897;50.812;4.430;2023-10-13T02:51:03;19.50;99.90
24800;DHT22;12897;50.812;4.430;2023-10-13T02:53:36;19.60;99.90
24800;DHT22;12897;50.812;4.430;2023-10-13T02:56:13;19.50;99.90
24800;DHT22;12897;50.812;4.430;2023-10-13T02:58:52;19.60;99.90
24800;DHT22;12897;50.812;4.430;2023-10-13T03:01:25;19.60;99.90
24800;DHT22;12897;50.812;4.430;2023-10-13T03:04:04;19.40;99.90
24800;DHT22;12897;50.812;4.430;2023-10-13T03:06:39;19.40;99.90
24800;DHT22;12897;50.812;4.430;2023-10-13T03:09:17;19.50;99.90
24800;DHT22;12897;50.812;4.430;2023-10-13T03:11:53;19.50;99.90
24800;DHT22;12897;50.812;4.430;2023-10-13T03:14:23;19.60;99.90
24800;DHT22;12897;50.812;4.430;2023-10-13T03:17:03;19.60;99.90
24800;DHT22;12897;50.812;4.430;2023-10-13T03:19:38;19.40;99.90
24800;DHT22;12897;50.812;4.430;2023-10-13T03:22:18;19.40;99.90
24800;DHT22;12897;50.812;4.430;2023-10-13T03:27:41;19.30;99.90
24800;DHT22;12897;50.812;4.430;2023-10-13T03:30:07;19.10;99.90
24800;DHT22;12897;50.812;4.430;2023-10-13T03:32:42;19.20;99.90
24800;DHT22;12897;50.812;4.430;2023-10-13T03:35:21;19.20;99.90
24800;DHT22;12897;50.812;4.430;2023-10-13T03:37:58;19.00;99.90
24800;DHT22;12897;50.812;4.430;2023-10-13T03:40:54;19.00;99.90
24800;DHT22;12897;50.812;4.430;2023-10-13T03:43:20;19.00;99.90
24800;DHT22;12897;50.812;4.430;2023-10-13T03:45:55;18.90;99.90
24800;DHT22;12897;50.812;4.430;2023-10-13T03:48:29;19.00;99.90
24800;DHT22;12897;50.812;4.430;2023-10-13T03:51:02;19.10;99.90
24800;DHT22;12897;50.812;4.430;2023-10-13T03:53:38;19.10;99.90
24800;DHT22;12897;50.812;4.430;2023-10-13T03:56:25;19.20;99.90
24800;DHT22;12897;50.812;4.430;2023-10-13T03:59:06;19.20;99.90
24800;DHT22;12897;50.812;4.430;2023-10-13T04:01:37;19.40;99.90
24800;DHT22;12897;50.812;4.430;2023-10-13T04:04:13;19.20;99.90
24800;DHT22;12897;50.812;4.430;2023-10-13T04:06:43;19.20;99.90
24800;DHT22;12897;50.812;4.430;2023-10-13T04:09:19;19.00;99.90
24800;DHT22;12897;50.812;4.430;2023-10-13T04:12:08;19.00;99.90
24800;DHT22;12897;50.812;4.430;2023-10-13T04:14:49;19.00;99.90
24800;DHT22;12897;50.812;4.430;2023-10-13T04:17:34;19.00;99.90
24800;DHT22;12897;50.812;4.430;2023-10-13T04:20:05;19.00;99.90
24800;DHT22;12897;50.812;4.430;2023-10-13T04:22:39;19.10;99.90
24800;DHT22;12897;50.812;4.430;2023-10-13T04:25:20;19.10;99.90
24800;DHT22;12897;50.812;4.430;2023-10-13T04:28:11;19.10;99.90
24800;DHT22;12897;50.812;4.430;2023-10-13T04:30:45;19.00;99.90
24800;DHT22;12897;50.812;4.430;2023-10-13T04:33:29;18.90;99.90
24800;DHT22;12897;50.812;4.430;2023-10-13T04:36:17;18.90;99.90
24800;DHT22;12897;50.812;4.430;2023-10-13T04:38:55;19.00;99.90
24800;DHT22;12897;50.812;4.430;2023-10-13T04:41:37;19.00;99.90
24800;DHT22;12897;50.812;4.430;2023-10-13T04:44:14;19.10;99.90
24800;DHT22;12897;50.812;4.430;2023-10-13T04:47:03;19.10;99.90
24800;DHT22;12897;50.812;4.430;2023-10-13T04:49:38;19.20;99.90
24800;DHT22;12897;50.812;4.430;2023-10-13T04:52:13;19.40;99.90
24800;DHT22;12897;50.812;4.430;2023-10-13T04:54:58;19.60;99.90
24800;DHT22;12897;50.812;4.430;2023-10-13T04:57:28;19.60;99.90
24800;DHT22;12897;50.812;4.430;2023-10-13T05:00:02;19.60;99.90
24800;DHT22;12897;50.812;4.430;2023-10-13T05:02:42;19.60;99.90
24800;DHT22;12897;50.812;4.430;2023-10-13T05:05:23;19.70;99.90
24800;DHT22;12897;50.812;4.430;2023-10-13T05:08:10;19.70;99.90
24800;DHT22;12897;50.812;4.430;2023-10-13T05:11:38;19.80;99.90
24800;DHT22;12897;50.812;4.430;2023-10-13T05:13:53;19.60;99.90
24800;DHT22;12897;50.812;4.430;2023-10-13T05:16:38;19.60;99.90
24800;DHT22;12897;50.812;4.430;2023-10-13T05:19:31;19.60;99.90
24800;DHT22;12897;50.812;4.430;2023-10-13T05:22:16;19.70;99.90
24800;DHT22;12897;50.812;4.430;2023-10-13T05:25:05;19.80;99.90
24800;DHT22;12897;50.812;4.430;2023-10-13T05:27:56;19.80;99.90
24800;DHT22;12897;50.812;4.430;2023-10-13T05:30:37;19.70;99.90
24800;DHT22;12897;50.812;4.430;2023-10-13T05:33:22;19.80;99.90
24800;DHT22;12897;50.812;4.430;2023-10-13T05:36:11;19.70;99.90
24800;DHT22;12897;50.812;4.430;2023-10-13T05:38:58;19.60;99.90
24800;DHT22;12897;50.812;4.430;2023-10-13T05:41:43;19.70;99.90
24800;DHT22;12897;50.812;4.430;2023-10-13T05:44:30;19.60;99.90
24800;DHT22;12897;50.812;4.430;2023-10-13T05:47:05;19.60;99.90
24800;DHT22;12897;50.812;4.430;2023-10-13T05:49:56;19.60;99.90
24800;DHT22;12897;50.812;4.430;2023-10-13T05:52:25;19.50;99.90
24800;DHT22;12897;50.812;4.430;2023-10-13T05:55:14;19.30;99.90
24800;DHT22;12897;50.812;4.430;2023-10-13T05:58:08;19.30;99.90
24800;DHT22;12897;50.812;4.430;2023-10-13T06:00:46;19.40;99.90
24800;DHT22;12897;50.812;4.430;2023-10-13T06:03:58;19.50;99.90
24800;DHT22;12897;50.812;4.430;2023-10-13T06:06:14;19.60;99.90
24800;DHT22;12897;50.812;4.430;2023-10-13T06:09:10;19.50;99.90
24800;DHT22;12897;50.812;4.430;2023-10-13T06:11:54;19.50;99.90
24800;DHT22;12897;50.812;4.430;2023-10-13T06:14:45;19.30;99.90
24800;DHT22;12897;50.812;4.430;2023-10-13T06:17:37;19.30;99.90
24800;DHT22;12897;50.812;4.430;2023-10-13T06:20:24;19.50;99.90
24800;DHT22;12897;50.812;4.430;2023-10-13T06:23:07;19.60;99.90
24800;DHT22;12897;50.812;4.430;2023-10-13T06:25:52;19.50;99.90
24800;DHT22;12897;50.812;4.430;2023-10-13T06:28:37;19.70;99.90
24800;DHT22;12897;50.812;4.430;2023-10-13T06:31:09;19.70;99.90
24800;DHT22;12897;50.812;4.430;2023-10-13T06:33:38;19.70;99.90
24800;DHT22;12897;50.812;4.430;2023-10-13T06:36:09;19.70;99.90
24800;DHT22;12897;50.812;4.430;2023-10-13T06:38:37;19.70;99.90
24800;DHT22;12897;50.812;4.430;2023-10-13T06:41:05;19.60;99.90
24800;DHT22;12897;50.812;4.430;2023-10-13T06:43:35;19.50;99.90
24800;DHT22;12897;50.812;4.430;2023-10-13T06:46:05;19.40;99.90
24800;DHT22;12897;50.812;4.430;2023-10-13T06:48:34;19.50;99.90
24800;DHT22;12897;50.812;4.430;2023-10-13T06:51:02;19.80;99.90
24800;DHT22;12897;50.812;4.430;2023-10-13T06:53:45;19.90;99.90
24800;DHT22;12897;50.812;4.430;2023-10-13T06:56:17;19.70;99.90
24800;DHT22;12897;50.812;4.430;2023-10-13T06:58:55;19.80;99.90
24800;DHT22;12897;50.812;4.430;2023-10-13T07:01:30;19.80;99.90
24800;DHT22;12897;50.812;4.430;2023-10-13T07:03:59;19.60;99.90
24800;DHT22;12897;50.812;4.430;2023-10-13T07:06:30;19.60;99.90
24800;DHT22;12897;50.812;4.430;2023-10-13T07:08:59;19.70;99.90
24800;DHT22;12897;50.812;4.430;2023-10-13T07:11:28;19.70;99.90
24800;DHT22;12897;50.812;4.430;2023-10-13T07:14:04;19.60;99.90
24800;DHT22;12897;50.812;4.430;2023-10-13T07:16:56;19.50;99.90
24800;DHT22;12897;50.812;4.430;2023-10-13T07:19:14;19.50;99.90
24800;DHT22;12897;50.812;4.430;2023-10-13T07:21:45;19.60;99.90
24800;DHT22;12897;50.812;4.430;2023-10-13T07:24:13;19.70;99.90
24800;DHT22;12897;50.812;4.430;2023-10-13T07:26:42;19.60;99.90
24800;DHT22;12897;50.812;4.430;2023-10-13T07:29:12;19.70;99.90
24800;DHT22;12897;50.812;4.430;2023-10-13T07:31:41;19.80;99.90
24800;DHT22;12897;50.812;4.430;2023-10-13T07:34:10;19.90;99.90
24800;DHT22;12897;50.812;4.430;2023-10-13T07:36:43;20.00;99.90
24800;DHT22;12897;50.812;4.430;2023-10-13T07:39:11;20.00;99.90
24800;DHT22;12897;50.812;4.430;2023-10-13T07:41:40;20.00;99.90
24800;DHT22;12897;50.812;4.430;2023-10-13T07:44:08;20.20;99.90
24800;DHT22;12897;50.812;4.430;2023-10-13T07:46:37;20.20;99.90
24800;DHT22;12897;50.812;4.430;2023-10-13T07:49:05;20.30;99.90
24800;DHT22;12897;50.812;4.430;2023-10-13T07:51:41;20.20;99.90
24800;DHT22;12897;50.812;4.430;2023-10-13T07:54:15;20.10;99.90
24800;DHT22;12897;50.812;4.430;2023-10-13T07:56:45;20.20;99.90
24800;DHT22;12897;50.812;4.430;2023-10-13T07:59:12;20.30;99.90
24800;DHT22;12897;50.812;4.430;2023-10-13T08:01:41;20.40;99.90
24800;DHT22;12897;50.812;4.430;2023-10-13T08:04:10;20.50;99.90
24800;DHT22;12897;50.812;4.430;2023-10-13T08:06:42;20.60;99.90
24800;DHT22;12897;50.812;4.430;2023-10-13T08:09:11;20.80;99.90
24800;DHT22;12897;50.812;4.430;2023-10-13T08:11:59;20.70;99.90
24800;DHT22;12897;50.812;4.430;2023-10-13T08:14:27;20.80;99.90
24800;DHT22;12897;50.812;4.430;2023-10-13T08:16:56;20.80;99.90
24800;DHT22;12897;50.812;4.430;2023-10-13T08:19:28;20.90;99.90
24800;DHT22;12897;50.812;4.430;2023-10-13T08:22:02;20.90;99.90
24800;DHT22;12897;50.812;4.430;2023-10-13T08:24:51;21.00;99.90
24800;DHT22;12897;50.812;4.430;2023-10-13T08:27:22;21.00;99.90
24800;DHT22;12897;50.812;4.430;2023-10-13T08:30:02;21.00;99.90
24800;DHT22;12897;50.812;4.430;2023-10-13T08:32:38;21.00;99.90
24800;DHT22;12897;50.812;4.430;2023-10-13T08:35:20;21.30;99.90
24800;DHT22;12897;50.812;4.430;2023-10-13T08:37:59;21.30;99.90
24800;DHT22;12897;50.812;4.430;2023-10-13T08:40:28;21.40;99.90
24800;DHT22;12897;50.812;4.430;2023-10-13T08:43:13;21.30;99.90
24800;DHT22;12897;50.812;4.430;2023-10-13T08:45:43;21.30;99.90
24800;DHT22;12897;50.812;4.430;2023-10-13T08:48:13;21.30;99.90
24800;DHT22;12897;50.812;4.430;2023-10-13T08:50:50;21.40;99.90
24800;DHT22;12897;50.812;4.430;2023-10-13T08:58:37;21.60;99.90
24800;DHT22;12897;50.812;4.430;2023-10-13T09:01:25;21.60;99.90
24800;DHT22;12897;50.812;4.430;2023-10-13T09:04:12;21.60;99.90
24800;DHT22;12897;50.812;4.430;2023-10-13T09:06:55;21.80;99.90
24800;DHT22;12897;50.812;4.430;2023-10-13T09:09:46;21.60;99.90
24800;DHT22;12897;50.812;4.430;2023-10-13T09:14:53;21.60;99.90
24800;DHT22;12897;50.812;4.430;2023-10-13T09:17:24;21.60;99.90
24800;DHT22;12897;50.812;4.430;2023-10-13T09:20:06;21.60;99.90
24800;DHT22;12897;50.812;4.430;2023-10-13T09:22:52;21.80;99.90
24800;DHT22;12897;50.812;4.430;2023-10-13T09:25:30;21.90;99.90
24800;DHT22;12897;50.812;4.430;2023-10-13T09:28:16;22.10;99.90
24800;DHT22;12897;50.812;4.430;2023-10-13T09:30:50;21.90;99.90
24800;DHT22;12897;50.812;4.430;2023-10-13T09:33:22;22.00;99.90
24800;DHT22;12897;50.812;4.430;2023-10-13T09:35:56;22.00;99.90
24800;DHT22;12897;50.812;4.430;2023-10-13T09:38:29;21.90;99.90
24800;DHT22;12897;50.812;4.430;2023-10-13T09:40:58;21.80;99.90
24800;DHT22;12897;50.812;4.430;2023-10-13T09:43:28;21.80;99.90
24800;DHT22;12897;50.812;4.430;2023-10-13T09:46:01;22.00;99.90
24800;DHT22;12897;50.812;4.430;2023-10-13T09:48:31;22.10;99.90
24800;DHT22;12897;50.812;4.430;2023-10-13T09:51:04;22.10;99.90
24800;DHT22;12897;50.812;4.430;2023-10-13T09:53:36;22.30;99.90
24800;DHT22;12897;50.812;4.430;2023-10-13T09:56:25;22.40;99.90
24800;DHT22;12897;50.812;4.430;2023-10-13T09:59:00;22.50;99.90
24800;DHT22;12897;50.812;4.430;2023-10-13T10:01:30;22.30;99.90
24800;DHT22;12897;50.812;4.430;2023-10-13T10:04:10;22.40;99.90
24800;DHT22;12897;50.812;4.430;2023-10-13T10:06:52;22.40;99.90
24800;DHT22;12897;50.812;4.430;2023-10-13T10:09:28;22.50;99.90
24800;DHT22;12897;50.812;4.430;2023-10-13T10:17:43;22.60;99.90
24800;DHT22;12897;50.812;4.430;2023-10-13T10:20:12;22.70;99.90
24800;DHT22;12897;50.812;4.430;2023-10-13T10:22:43;22.70;99.90
24800;DHT22;12897;50.812;4.430;2023-10-13T10:25:14;23.00;99.90
24800;DHT22;12897;50.812;4.430;2023-10-13T10:28:07;22.80;99.90
24800;DHT22;12897;50.812;4.430;2023-10-13T10:30:45;23.00;99.90
24800;DHT22;12897;50.812;4.430;2023-10-13T10:33:11;23.00;99.90
24800;DHT22;12897;50.812;4.430;2023-10-13T10:38:23;22.90;99.90
24800;DHT22;12897;50.812;4.430;2023-10-13T10:41:08;23.10;99.90
24800;DHT22;12897;50.812;4.430;2023-10-13T10:43:40;23.10;99.90
24800;DHT22;12897;50.812;4.430;2023-10-13T10:46:12;23.10;99.90
24800;DHT22;12897;50.812;4.430;2023-10-13T10:48:48;23.20;99.90
24800;DHT22;12897;50.812;4.430;2023-10-13T10:51:15;23.20;99.90
24800;DHT22;12897;50.812;4.430;2023-10-13T10:53:53;23.30;99.90
24800;DHT22;12897;50.812;4.430;2023-10-13T10:56:25;23.10;99.90
24800;DHT22;12897;50.812;4.430;2023-10-13T10:58:57;23.20;99.90
24800;DHT22;12897;50.812;4.430;2023-10-13T11:01:26;23.40;99.90
24800;DHT22;12897;50.812;4.430;2023-10-13T11:04:05;23.60;99.90
24800;DHT22;12897;50.812;4.430;2023-10-13T11:06:38;23.60;99.90
24800;DHT22;12897;50.812;4.430;2023-10-13T11:09:07;23.60;99.90
24800;DHT22;12897;50.812;4.430;2023-10-13T11:11:55;23.70;99.90
24800;DHT22;12897;50.812;4.430;2023-10-13T11:14:29;23.60;99.90
24800;DHT22;12897;50.812;4.430;2023-10-13T11:16:58;23.40;99.90
24800;DHT22;12897;50.812;4.430;2023-10-13T11:19:40;23.50;99.90
24800;DHT22;12897;50.812;4.430;2023-10-13T11:22:15;23.70;99.90
24800;DHT22;12897;50.812;4.430;2023-10-13T11:25:04;23.70;99.90
24800;DHT22;12897;50.812;4.430;2023-10-13T11:27:34;23.80;99.90
24800;DHT22;12897;50.812;4.430;2023-10-13T11:30:07;23.80;99.90
24800;DHT22;12897;50.812;4.430;2023-10-13T11:32:36;23.90;99.90
24800;DHT22;12897;50.812;4.430;2023-10-13T11:35:07;23.80;99.90
24800;DHT22;12897;50.812;4.430;2023-10-13T11:37:47;23.80;99.90
24800;DHT22;12897;50.812;4.430;2023-10-13T11:40:23;23.70;99.90
24800;DHT22;12897;50.812;4.430;2023-10-13T11:42:52;23.80;99.90
24800;DHT22;12897;50.812;4.430;2023-10-13T11:45:24;23.90;99.90
24800;DHT22;12897;50.812;4.430;2023-10-13T11:48:01;23.80;99.90
24800;DHT22;12897;50.812;4.430;2023-10-13T11:50:31;24.00;99.90
24800;DHT22;12897;50.812;4.430;2023-10-13T11:53:03;23.90;99.90
24800;DHT22;12897;50.812;4.430;2023-10-13T11:55:32;23.90;99.90
24800;DHT22;12897;50.812;4.430;2023-10-13T11:57:59;24.10;99.90
24800;DHT22;12897;50.812;4.430;2023-10-13T12:00:27;24.00;99.90
24800;DHT22;12897;50.812;4.430;2023-10-13T12:03:12;23.90;99.90
24800;DHT22;12897;50.812;4.430;2023-10-13T12:05:58;23.70;99.90
24800;DHT22;12897;50.812;4.430;2023-10-13T12:08:43;23.90;99.90
24800;DHT22;12897;50.812;4.430;2023-10-13T12:11:12;24.00;99.90
24800;DHT22;12897;50.812;4.430;2023-10-13T12:13:59;23.80;99.90
24800;DHT22;12897;50.812;4.430;2023-10-13T12:16:28;23.90;99.90
24800;DHT22;12897;50.812;4.430;2023-10-13T12:18:57;23.90;99.90
24800;DHT22;12897;50.812;4.430;2023-10-13T12:21:26;23.90;99.90
24800;DHT22;12897;50.812;4.430;2023-10-13T12:23:55;23.80;99.90
24800;DHT22;12897;50.812;4.430;2023-10-13T12:26:23;23.60;99.90
24800;DHT22;12897;50.812;4.430;2023-10-13T12:28:52;23.50;99.90
24800;DHT22;12897;50.812;4.430;2023-10-13T12:31:20;23.50;99.90
24800;DHT22;12897;50.812;4.430;2023-10-13T12:33:49;23.40;99.90
24800;DHT22;12897;50.812;4.430;2023-10-13T12:36:19;23.30;99.90
24800;DHT22;12897;50.812;4.430;2023-10-13T12:38:48;23.30;99.90
24800;DHT22;12897;50.812;4.430;2023-10-13T12:41:18;23.30;99.90
24800;DHT22;12897;50.812;4.430;2023-10-13T12:44:05;23.10;99.90
24800;DHT22;12897;50.812;4.430;2023-10-13T12:46:51;23.10;99.90
24800;DHT22;12897;50.812;4.430;2023-10-13T12:49:37;23.20;99.90
24800;DHT22;12897;50.812;4.430;2023-10-13T12:52:16;23.20;99.90
24800;DHT22;12897;50.812;4.430;2023-10-13T12:54:46;23.10;99.90
24800;DHT22;12897;50.812;4.430;2023-10-13T12:57:26;23.20;99.90
24800;DHT22;12897;50.812;4.430;2023-10-13T12:59:55;23.40;99.90
24800;DHT22;12897;50.812;4.430;2023-10-13T13:02:26;23.40;99.90
24800;DHT22;12897;50.812;4.430;2023-10-13T13:04:54;23.20;99.90
24800;DHT22;12897;50.812;4.430;2023-10-13T13:07:26;23.30;99.90
24800;DHT22;12897;50.812;4.430;2023-10-13T13:09:57;23.40;99.90
24800;DHT22;12897;50.812;4.430;2023-10-13T13:12:28;23.30;99.90
24800;DHT22;12897;50.812;4.430;2023-10-13T13:14:55;23.30;99.90
24800;DHT22;12897;50.812;4.430;2023-10-13T13:17:23;23.30;99.90
24800;DHT22;12897;50.812;4.430;2023-10-13T13:19:50;23.30;99.90
24800;DHT22;12897;50.812;4.430;2023-10-13T13:22:18;23.30;99.90
24800;DHT22;12897;50.812;4.430;2023-10-13T13:24:47;23.30;99.90
24800;DHT22;12897;50.812;4.430;2023-10-13T13:27:16;23.40;99.90
24800;DHT22;12897;50.812;4.430;2023-10-13T13:29:50;23.40;99.90
24800;DHT22;12897;50.812;4.430;2023-10-13T13:32:17;23.40;99.90
24800;DHT22;12897;50.812;4.430;2023-10-13T13:34:51;23.30;99.90
24800;DHT22;12897;50.812;4.430;2023-10-13T13:37:23;23.20;99.90
24800;DHT22;12897;50.812;4.430;2023-10-13T13:39:52;23.00;99.90
24800;DHT22;12897;50.812;4.430;2023-10-13T13:42:20;23.20;99.90
24800;DHT22;12897;50.812;4.430;2023-10-13T13:44:48;23.30;99.90
24800;DHT22;12897;50.812;4.430;2023-10-13T13:47:16;23.50;99.90
24800;DHT22;12897;50.812;4.430;2023-10-13T13:49:43;23.60;99.90
24800;DHT22;12897;50.812;4.430;2023-10-13T13:52:15;23.80;99.90
24800;DHT22;12897;50.812;4.430;2023-10-13T13:54:44;23.60;99.90
24800;DHT22;12897;50.812;4.430;2023-10-13T13:57:12;23.60;99.90
24800;DHT22;12897;50.812;4.430;2023-10-13T13:59:40;23.60;99.90
24800;DHT22;12897;50.812;4.430;2023-10-13T14:02:09;23.70;99.90
24800;DHT22;12897;50.812;4.430;2023-10-13T14:04:47;23.70;99.90
24800;DHT22;12897;50.812;4.430;2023-10-13T14:07:18;23.80;99.90
24800;DHT22;12897;50.812;4.430;2023-10-13T14:09:48;23.60;99.90
24800;DHT22;12897;50.812;4.430;2023-10-13T14:12:19;23.60;99.90
24800;DHT22;12897;50.812;4.430;2023-10-13T14:14:57;23.30;99.90
24800;DHT22;12897;50.812;4.430;2023-10-13T14:17:27;23.10;99.90
24800;DHT22;12897;50.812;4.430;2023-10-13T14:19:59;23.30;99.90
24800;DHT22;12897;50.812;4.430;2023-10-13T14:22:26;23.40;99.90
24800;DHT22;12897;50.812;4.430;2023-10-13T14:24:54;23.40;99.90
24800;DHT22;12897;50.812;4.430;2023-10-13T14:27:22;23.50;99.90
24800;DHT22;12897;50.812;4.430;2023-10-13T14:29:50;23.40;99.90
24800;DHT22;12897;50.812;4.430;2023-10-13T14:32:21;23.30;99.90
24800;DHT22;12897;50.812;4.430;2023-10-13T14:34:51;23.10;99.90
24800;DHT22;12897;50.812;4.430;2023-10-13T14:37:23;23.40;99.90
24800;DHT22;12897;50.812;4.430;2023-10-13T14:39:55;23.40;99.90
24800;DHT22;12897;50.812;4.430;2023-10-13T14:42:25;23.30;99.90
24800;DHT22;12897;50.812;4.430;2023-10-13T14:44:54;23.20;99.90
24800;DHT22;12897;50.812;4.430;2023-10-13T14:47:28;23.10;99.90
24800;DHT22;12897;50.812;4.430;2023-10-13T14:49:56;23.20;99.90
24800;DHT22;12897;50.812;4.430;2023-10-13T14:52:29;23.00;99.90
24800;DHT22;12897;50.812;4.430;2023-10-13T14:54:59;22.80;99.90
24800;DHT22;12897;50.812;4.430;2023-10-13T14:57:27;22.80;99.90
24800;DHT22;12897;50.812;4.430;2023-10-13T14:59:55;22.70;99.90
24800;DHT22;12897;50.812;4.430;2023-10-13T15:02:25;22.70;99.90
24800;DHT22;12897;50.812;4.430;2023-10-13T15:04:52;22.70;99.90
24800;DHT22;12897;50.812;4.430;2023-10-13T15:07:20;22.60;99.90
24800;DHT22;12897;50.812;4.430;2023-10-13T15:09:48;22.60;99.90
24800;DHT22;12897;50.812;4.430;2023-10-13T15:12:16;22.70;99.90
24800;DHT22;12897;50.812;4.430;2023-10-13T15:14:45;22.70;99.90
24800;DHT22;12897;50.812;4.430;2023-10-13T15:17:13;22.90;99.90
24800;DHT22;12897;50.812;4.430;2023-10-13T15:19:42;22.90;99.90
24800;DHT22;12897;50.812;4.430;2023-10-13T15:22:10;22.60;99.90
24800;DHT22;12897;50.812;4.430;2023-10-13T15:24:40;22.70;99.90
24800;DHT22;12897;50.812;4.430;2023-10-13T15:27:12;22.90;99.90
24800;DHT22;12897;50.812;4.430;2023-10-13T15:29:41;22.70;99.90
24800;DHT22;12897;50.812;4.430;2023-10-13T15:32:11;22.70;99.90
24800;DHT22;12897;50.812;4.430;2023-10-13T15:34:44;22.70;99.90
24800;DHT22;12897;50.812;4.430;2023-10-13T15:37:12;22.60;99.90
24800;DHT22;12897;50.812;4.430;2023-10-13T15:39:39;22.60;99.90
24800;DHT22;12897;50.812;4.430;2023-10-13T15:42:07;22.50;99.90
24800;DHT22;12897;50.812;4.430;2023-10-13T15:44:36;22.70;99.90
24800;DHT22;12897;50.812;4.430;2023-10-13T15:47:06;22.60;99.90
24800;DHT22;12897;50.812;4.430;2023-10-13T15:49:41;22.60;99.90
24800;DHT22;12897;50.812;4.430;2023-10-13T15:52:08;22.40;99.90
24800;DHT22;12897;50.812;4.430;2023-10-13T15:54:37;22.40;99.90
24800;DHT22;12897;50.812;4.430;2023-10-13T15:57:08;22.30;99.90
24800;DHT22;12897;50.812;4.430;2023-10-13T15:59:37;22.20;99.90
24800;DHT22;12897;50.812;4.430;2023-10-13T16:02:05;22.30;99.90
24800;DHT22;12897;50.812;4.430;2023-10-13T16:04:34;22.40;99.90
24800;DHT22;12897;50.812;4.430;2023-10-13T16:07:05;22.20;99.90
24800;DHT22;12897;50.812;4.430;2023-10-13T16:09:34;22.10;99.90
24800;DHT22;12897;50.812;4.430;2023-10-13T16:12:02;22.10;99.90
24800;DHT22;12897;50.812;4.430;2023-10-13T16:14:31;22.00;99.90
24800;DHT22;12897;50.812;4.430;2023-10-13T16:17:01;21.90;99.90
24800;DHT22;12897;50.812;4.430;2023-10-13T16:19:30;22.00;99.90
24800;DHT22;12897;50.812;4.430;2023-10-13T16:21:58;22.00;99.90
24800;DHT22;12897;50.812;4.430;2023-10-13T16:24:25;21.90;99.90
24800;DHT22;12897;50.812;4.430;2023-10-13T16:26:55;21.70;99.90
24800;DHT22;12897;50.812;4.430;2023-10-13T16:29:23;21.40;99.90
24800;DHT22;12897;50.812;4.430;2023-10-13T16:31:50;21.30;99.90